sensor_id;sensor_type;location;lat;lon;timestamp;P1;durP1;ratioP1;P2;durP2;ratioP2
19036;SDS011;9651;49.138;8.900;2024-03-29T00:03:07;1.37;;;0.90;;
19036;SDS011;9651;49.138;8.900;2024-03-29T00:07:09;2.33;;;0.70;;
19036;SDS011;9651;49.138;8.900;2024-03-29T00:11:11;1.63;;;0.80;;
19036;SDS011;9651;49.138;8.900;2024-03-29T00:15:12;1.63;;;0.63;;
19036;SDS011;9651;49.138;8.900;2024-03-29T00:19:13;1.90;;;0.70;;
19036;SDS011;9651;49.138;8.900;2024-03-29T00:23:14;0.97;;;0.60;;
19036;SDS011;9651;49.138;8.900;2024-03-29T00:27:17;0.93;;;0.60;;
19036;SDS011;9651;49.138;8.900;2024-03-29T00:31:18;0.53;;;0.50;;
19036;SDS011;9651;49.138;8.900;2024-03-29T00:35:18;1.77;;;0.80;;
19036;SDS011;9651;49.138;8.900;2024-03-29T00:39:19;2.50;;;0.73;;
19036;SDS011;9651;49.138;8.900;2024-03-29T00:43:22;1.33;;;0.70;;
19036;SDS011;9651;49.138;8.900;2024-03-29T00:47:23;2.40;;;0.80;;
19036;SDS011;9651;49.138;8.900;2024-03-29T00:51:24;1.83;;;0.70;;
19036;SDS011;9651;49.138;8.900;2024-03-29T00:55:26;1.80;;;0.83;;
19036;SDS011;9651;49.138;8.900;2024-03-29T00:59:28;2.30;;;0.60;;
19036;SDS011;9651;49.138;8.900;2024-03-29T01:03:29;1.80;;;0.70;;
19036;SDS011;9651;49.138;8.900;2024-03-29T01:07:30;0.90;;;0.70;;
19036;SDS011;9651;49.138;8.900;2024-03-29T01:11:31;2.67;;;0.70;;
19036;SDS011;9651;49.138;8.900;2024-03-29T01:15:34;1.23;;;0.63;;
19036;SDS011;9651;49.138;8.900;2024-03-29T01:19:35;2.30;;;1.10;;
19036;SDS011;9651;49.138;8.900;2024-03-29T01:23:35;0.90;;;0.63;;
19036;SDS011;9651;49.138;8.900;2024-03-29T01:27:36;1.13;;;0.63;;
19036;SDS011;9651;49.138;8.900;2024-03-29T01:31:39;1.37;;;0.83;;
19036;SDS011;9651;49.138;8.900;2024-03-29T01:35:40;1.20;;;0.53;;
19036;SDS011;9651;49.138;8.900;2024-03-29T01:39:41;3.47;;;0.80;;
19036;SDS011;9651;49.138;8.900;2024-03-29T01:43:41;1.40;;;0.47;;
19036;SDS011;9651;49.138;8.900;2024-03-29T01:47:45;3.37;;;0.77;;
19036;SDS011;9651;49.138;8.900;2024-03-29T01:51:47;2.57;;;0.60;;
19036;SDS011;9651;49.138;8.900;2024-03-29T01:55:49;1.43;;;0.70;;
19036;SDS011;9651;49.138;8.900;2024-03-29T01:59:52;1.40;;;0.70;;
19036;SDS011;9651;49.138;8.900;2024-03-29T02:03:55;2.20;;;1.47;;
19036;SDS011;9651;49.138;8.900;2024-03-29T02:07:57;0.67;;;0.60;;
19036;SDS011;9651;49.138;8.900;2024-03-29T02:12:00;1.00;;;0.60;;
19036;SDS011;9651;49.138;8.900;2024-03-29T02:16:02;2.43;;;0.87;;
19036;SDS011;9651;49.138;8.900;2024-03-29T02:20:06;1.27;;;0.70;;
19036;SDS011;9651;49.138;8.900;2024-03-29T02:24:09;0.87;;;0.70;;
19036;SDS011;9651;49.138;8.900;2024-03-29T02:28:13;1.23;;;0.80;;
19036;SDS011;9651;49.138;8.900;2024-03-29T02:32:15;0.77;;;0.60;;
19036;SDS011;9651;49.138;8.900;2024-03-29T02:36:17;2.10;;;1.00;;
19036;SDS011;9651;49.138;8.900;2024-03-29T02:40:20;2.23;;;0.70;;
19036;SDS011;9651;49.138;8.900;2024-03-29T02:44:22;3.33;;;0.80;;
19036;SDS011;9651;49.138;8.900;2024-03-29T02:48:24;1.13;;;0.77;;
19036;SDS011;9651;49.138;8.900;2024-03-29T02:52:26;2.47;;;1.10;;
19036;SDS011;9651;49.138;8.900;2024-03-29T02:56:30;1.33;;;0.80;;
19036;SDS011;9651;49.138;8.900;2024-03-29T03:00:33;1.23;;;0.77;;
19036;SDS011;9651;49.138;8.900;2024-03-29T03:04:35;2.57;;;0.87;;
19036;SDS011;9651;49.138;8.900;2024-03-29T03:08:36;1.20;;;0.60;;
19036;SDS011;9651;49.138;8.900;2024-03-29T03:12:57;1.20;;;0.73;;
19036;SDS011;9651;49.138;8.900;2024-03-29T03:16:59;1.10;;;0.70;;
19036;SDS011;9651;49.138;8.900;2024-03-29T03:21:01;0.97;;;0.60;;
19036;SDS011;9651;49.138;8.900;2024-03-29T03:25:03;1.73;;;0.70;;
19036;SDS011;9651;49.138;8.900;2024-03-29T03:29:07;0.70;;;0.57;;
19036;SDS011;9651;49.138;8.900;2024-03-29T03:33:10;1.10;;;0.73;;
19036;SDS011;9651;49.138;8.900;2024-03-29T03:37:12;1.33;;;0.60;;
19036;SDS011;9651;49.138;8.900;2024-03-29T03:41:14;1.80;;;0.70;;
19036;SDS011;9651;49.138;8.900;2024-03-29T03:45:17;1.80;;;0.77;;
19036;SDS011;9651;49.138;8.900;2024-03-29T03:49:18;0.97;;;0.70;;
19036;SDS011;9651;49.138;8.900;2024-03-29T03:53:20;1.73;;;0.67;;
19036;SDS011;9651;49.138;8.900;2024-03-29T03:57:21;1.33;;;0.40;;
19036;SDS011;9651;49.138;8.900;2024-03-29T04:01:24;0.50;;;0.50;;
19036;SDS011;9651;49.138;8.900;2024-03-29T04:05:25;1.63;;;0.47;;
19036;SDS011;9651;49.138;8.900;2024-03-29T04:09:27;3.00;;;0.70;;
19036;SDS011;9651;49.138;8.900;2024-03-29T04:13:29;1.30;;;0.77;;
19036;SDS011;9651;49.138;8.900;2024-03-29T04:17:32;0.43;;;0.40;;
19036;SDS011;9651;49.138;8.900;2024-03-29T04:21:35;0.90;;;0.60;;
19036;SDS011;9651;49.138;8.900;2024-03-29T04:25:37;0.80;;;0.50;;
19036;SDS011;9651;49.138;8.900;2024-03-29T04:29:39;2.17;;;0.60;;
19036;SDS011;9651;49.138;8.900;2024-03-29T04:33:42;1.07;;;0.53;;
19036;SDS011;9651;49.138;8.900;2024-03-29T04:37:43;1.33;;;0.60;;
19036;SDS011;9651;49.138;8.900;2024-03-29T04:41:45;1.10;;;0.70;;
19036;SDS011;9651;49.138;8.900;2024-03-29T04:45:46;0.90;;;0.60;;
19036;SDS011;9651;49.138;8.900;2024-03-29T04:49:50;0.90;;;0.47;;
19036;SDS011;9651;49.138;8.900;2024-03-29T04:53:51;0.73;;;0.60;;
19036;SDS011;9651;49.138;8.900;2024-03-29T04:57:53;3.13;;;0.70;;
19036;SDS011;9651;49.138;8.900;2024-03-29T05:01:55;0.70;;;0.50;;
19036;SDS011;9651;49.138;8.900;2024-03-29T05:05:59;1.23;;;1.03;;
19036;SDS011;9651;49.138;8.900;2024-03-29T05:10:01;0.70;;;0.53;;
19036;SDS011;9651;49.138;8.900;2024-03-29T05:14:06;0.90;;;0.50;;
19036;SDS011;9651;49.138;8.900;2024-03-29T05:18:10;0.40;;;0.40;;
19036;SDS011;9651;49.138;8.900;2024-03-29T05:22:13;1.00;;;0.60;;
19036;SDS011;9651;49.138;8.900;2024-03-29T05:26:15;0.73;;;0.50;;
19036;SDS011;9651;49.138;8.900;2024-03-29T05:30:17;1.27;;;0.70;;
19036;SDS011;9651;49.138;8.900;2024-03-29T05:34:19;1.07;;;0.50;;
19036;SDS011;9651;49.138;8.900;2024-03-29T05:38:22;0.57;;;0.53;;
19036;SDS011;9651;49.138;8.900;2024-03-29T05:42:24;0.60;;;0.40;;
19036;SDS011;9651;49.138;8.900;2024-03-29T05:46:27;1.23;;;0.70;;
19036;SDS011;9651;49.138;8.900;2024-03-29T05:50:29;1.33;;;0.83;;
19036;SDS011;9651;49.138;8.900;2024-03-29T05:54:34;1.77;;;0.70;;
19036;SDS011;9651;49.138;8.900;2024-03-29T05:58:36;0.90;;;0.63;;
19036;SDS011;9651;49.138;8.900;2024-03-29T06:02:38;0.93;;;0.60;;
19036;SDS011;9651;49.138;8.900;2024-03-29T06:06:41;1.27;;;0.50;;
19036;SDS011;9651;49.138;8.900;2024-03-29T06:10:44;0.70;;;0.60;;
19036;SDS011;9651;49.138;8.900;2024-03-29T06:14:46;2.37;;;0.90;;
19036;SDS011;9651;49.138;8.900;2024-03-29T06:19:06;1.43;;;0.70;;
19036;SDS011;9651;49.138;8.900;2024-03-29T06:23:08;2.87;;;1.23;;
19036;SDS011;9651;49.138;8.900;2024-03-29T06:27:11;2.20;;;0.60;;
19036;SDS011;9651;49.138;8.900;2024-03-29T06:31:16;0.97;;;0.60;;
19036;SDS011;9651;49.138;8.900;2024-03-29T06:35:18;1.80;;;0.50;;
19036;SDS011;9651;49.138;8.900;2024-03-29T06:39:22;0.73;;;0.50;;
19036;SDS011;9651;49.138;8.900;2024-03-29T06:43:27;0.80;;;0.63;;
19036;SDS011;9651;49.138;8.900;2024-03-29T06:47:29;3.03;;;2.40;;
19036;SDS011;9651;49.138;8.900;2024-03-29T06:51:30;3.20;;;1.70;;
19036;SDS011;9651;49.138;8.900;2024-03-29T06:55:32;0.93;;;0.63;;
19036;SDS011;9651;49.138;8.900;2024-03-29T06:59:36;1.00;;;0.53;;
19036;SDS011;9651;49.138;8.900;2024-03-29T07:03:39;1.00;;;0.60;;
19036;SDS011;9651;49.138;8.900;2024-03-29T07:07:41;1.20;;;0.80;;
19036;SDS011;9651;49.138;8.900;2024-03-29T07:11:45;0.97;;;0.70;;
19036;SDS011;9651;49.138;8.900;2024-03-29T07:15:51;0.80;;;0.60;;
19036;SDS011;9651;49.138;8.900;2024-03-29T07:19:53;0.40;;;0.30;;
19036;SDS011;9651;49.138;8.900;2024-03-29T07:23:55;1.07;;;0.47;;
19036;SDS011;9651;49.138;8.900;2024-03-29T07:27:57;0.77;;;0.50;;
19036;SDS011;9651;49.138;8.900;2024-03-29T07:32:00;1.20;;;0.77;;
19036;SDS011;9651;49.138;8.900;2024-03-29T07:36:02;0.40;;;0.40;;
19036;SDS011;9651;49.138;8.900;2024-03-29T07:40:06;0.70;;;0.70;;
19036;SDS011;9651;49.138;8.900;2024-03-29T07:44:09;0.73;;;0.53;;
19036;SDS011;9651;49.138;8.900;2024-03-29T07:48:13;1.03;;;0.60;;
19036;SDS011;9651;49.138;8.900;2024-03-29T07:52:16;2.58;;;1.20;;
19036;SDS011;9651;49.138;8.900;2024-03-29T07:56:19;1.23;;;0.57;;
19036;SDS011;9651;49.138;8.900;2024-03-29T08:00:21;1.00;;;0.60;;
19036;SDS011;9651;49.138;8.900;2024-03-29T08:04:25;2.40;;;0.60;;
19036;SDS011;9651;49.138;8.900;2024-03-29T08:08:26;1.87;;;0.80;;
19036;SDS011;9651;49.138;8.900;2024-03-29T08:12:28;3.80;;;0.70;;
19036;SDS011;9651;49.138;8.900;2024-03-29T08:16:30;2.10;;;0.90;;
19036;SDS011;9651;49.138;8.900;2024-03-29T08:20:33;1.90;;;0.97;;
19036;SDS011;9651;49.138;8.900;2024-03-29T08:24:35;3.53;;;1.20;;
19036;SDS011;9651;49.138;8.900;2024-03-29T08:28:37;1.30;;;0.93;;
19036;SDS011;9651;49.138;8.900;2024-03-29T08:32:39;4.30;;;1.23;;
19036;SDS011;9651;49.138;8.900;2024-03-29T08:36:42;2.70;;;1.10;;
19036;SDS011;9651;49.138;8.900;2024-03-29T08:40:44;1.53;;;0.60;;
19036;SDS011;9651;49.138;8.900;2024-03-29T08:44:48;1.73;;;0.90;;
19036;SDS011;9651;49.138;8.900;2024-03-29T08:48:50;1.47;;;1.27;;
19036;SDS011;9651;49.138;8.900;2024-03-29T08:52:53;0.70;;;0.70;;
19036;SDS011;9651;49.138;8.900;2024-03-29T08:56:55;2.63;;;1.03;;
19036;SDS011;9651;49.138;8.900;2024-03-29T09:00:57;3.03;;;0.77;;
19036;SDS011;9651;49.138;8.900;2024-03-29T09:05:01;2.07;;;0.63;;
19036;SDS011;9651;49.138;8.900;2024-03-29T09:09:05;0.87;;;0.80;;
19036;SDS011;9651;49.138;8.900;2024-03-29T09:13:07;1.17;;;0.63;;
19036;SDS011;9651;49.138;8.900;2024-03-29T09:17:10;2.27;;;0.60;;
19036;SDS011;9651;49.138;8.900;2024-03-29T09:21:12;1.80;;;0.90;;
19036;SDS011;9651;49.138;8.900;2024-03-29T09:25:15;1.40;;;0.70;;
19036;SDS011;9651;49.138;8.900;2024-03-29T09:29:17;1.00;;;0.73;;
19036;SDS011;9651;49.138;8.900;2024-03-29T09:33:20;3.00;;;1.20;;
19036;SDS011;9651;49.138;8.900;2024-03-29T09:37:22;2.43;;;0.70;;
19036;SDS011;9651;49.138;8.900;2024-03-29T09:41:25;0.77;;;0.60;;
19036;SDS011;9651;49.138;8.900;2024-03-29T09:45:29;1.10;;;0.60;;
19036;SDS011;9651;49.138;8.900;2024-03-29T09:49:34;0.80;;;0.70;;
19036;SDS011;9651;49.138;8.900;2024-03-29T09:53:37;1.27;;;0.77;;
19036;SDS011;9651;49.138;8.900;2024-03-29T09:57:40;2.13;;;0.80;;
19036;SDS011;9651;49.138;8.900;2024-03-29T10:01:42;1.77;;;0.73;;
19036;SDS011;9651;49.138;8.900;2024-03-29T10:05:44;0.75;;;0.60;;
19036;SDS011;9651;49.138;8.900;2024-03-29T10:09:47;1.50;;;0.83;;
19036;SDS011;9651;49.138;8.900;2024-03-29T10:13:52;0.50;;;0.50;;
19036;SDS011;9651;49.138;8.900;2024-03-29T10:17:53;1.00;;;0.60;;
19036;SDS011;9651;49.138;8.900;2024-03-29T10:22:04;0.50;;;0.50;;
19036;SDS011;9651;49.138;8.900;2024-03-29T10:26:07;0.60;;;0.52;;
19036;SDS011;9651;49.138;8.900;2024-03-29T10:30:12;2.38;;;0.50;;
19036;SDS011;9651;49.138;8.900;2024-03-29T10:34:17;2.00;;;0.82;;
19036;SDS011;9651;49.138;8.900;2024-03-29T10:38:19;2.10;;;1.08;;
19036;SDS011;9651;49.138;8.900;2024-03-29T10:42:21;2.25;;;0.70;;
19036;SDS011;9651;49.138;8.900;2024-03-29T10:46:26;0.90;;;0.80;;
19036;SDS011;9651;49.138;8.900;2024-03-29T10:50:29;2.45;;;1.10;;
19036;SDS011;9651;49.138;8.900;2024-03-29T10:54:33;3.17;;;2.38;;
19036;SDS011;9651;49.138;8.900;2024-03-29T10:58:38;2.38;;;1.60;;
19036;SDS011;9651;49.138;8.900;2024-03-29T11:02:48;1.10;;;1.00;;
19036;SDS011;9651;49.138;8.900;2024-03-29T11:06:51;1.38;;;1.00;;
19036;SDS011;9651;49.138;8.900;2024-03-29T11:10:58;1.25;;;1.10;;
19036;SDS011;9651;49.138;8.900;2024-03-29T11:15:02;1.23;;;0.55;;
19036;SDS011;9651;49.138;8.900;2024-03-29T11:19:07;2.35;;;1.90;;
19036;SDS011;9651;49.138;8.900;2024-03-29T11:23:11;1.77;;;1.13;;
19036;SDS011;9651;49.138;8.900;2024-03-29T11:27:13;2.55;;;0.90;;
19036;SDS011;9651;49.138;8.900;2024-03-29T11:31:16;1.08;;;0.60;;
19036;SDS011;9651;49.138;8.900;2024-03-29T11:35:19;0.95;;;0.70;;
19036;SDS011;9651;49.138;8.900;2024-03-29T11:39:23;1.65;;;0.63;;
19036;SDS011;9651;49.138;8.900;2024-03-29T11:43:25;1.73;;;0.60;;
19036;SDS011;9651;49.138;8.900;2024-03-29T11:47:28;2.33;;;0.80;;
19036;SDS011;9651;49.138;8.900;2024-03-29T11:51:32;0.60;;;0.55;;
19036;SDS011;9651;49.138;8.900;2024-03-29T11:55:35;1.00;;;0.90;;
19036;SDS011;9651;49.138;8.900;2024-03-29T11:59:37;2.03;;;0.98;;
19036;SDS011;9651;49.138;8.900;2024-03-29T12:03:39;1.60;;;1.08;;
19036;SDS011;9651;49.138;8.900;2024-03-29T12:07:43;3.03;;;1.35;;
19036;SDS011;9651;49.138;8.900;2024-03-29T12:11:47;4.50;;;1.60;;
19036;SDS011;9651;49.138;8.900;2024-03-29T12:15:49;1.88;;;1.20;;
19036;SDS011;9651;49.138;8.900;2024-03-29T12:19:52;2.67;;;1.42;;
19036;SDS011;9651;49.138;8.900;2024-03-29T12:24:02;1.98;;;1.65;;
19036;SDS011;9651;49.138;8.900;2024-03-29T12:28:05;1.85;;;1.30;;
19036;SDS011;9651;49.138;8.900;2024-03-29T12:32:07;1.25;;;1.15;;
19036;SDS011;9651;49.138;8.900;2024-03-29T12:36:11;4.20;;;1.65;;
19036;SDS011;9651;49.138;8.900;2024-03-29T12:40:16;3.40;;;1.20;;
19036;SDS011;9651;49.138;8.900;2024-03-29T12:44:22;1.55;;;1.40;;
19036;SDS011;9651;49.138;8.900;2024-03-29T12:48:24;1.88;;;1.35;;
19036;SDS011;9651;49.138;8.900;2024-03-29T12:52:27;3.08;;;1.67;;
19036;SDS011;9651;49.138;8.900;2024-03-29T12:56:38;3.38;;;1.73;;
19036;SDS011;9651;49.138;8.900;2024-03-29T13:00:42;4.45;;;2.78;;
19036;SDS011;9651;49.138;8.900;2024-03-29T13:04:44;5.03;;;1.83;;
19036;SDS011;9651;49.138;8.900;2024-03-29T13:08:46;5.97;;;2.67;;
19036;SDS011;9651;49.138;8.900;2024-03-29T13:12:51;3.08;;;1.95;;
19036;SDS011;9651;49.138;8.900;2024-03-29T13:16:53;3.80;;;2.28;;
19036;SDS011;9651;49.138;8.900;2024-03-29T13:20:54;3.70;;;2.70;;
19036;SDS011;9651;49.138;8.900;2024-03-29T13:24:59;3.05;;;1.80;;
19036;SDS011;9651;49.138;8.900;2024-03-29T13:29:03;1.63;;;1.45;;
19036;SDS011;9651;49.138;8.900;2024-03-29T13:33:05;3.08;;;1.50;;
19036;SDS011;9651;49.138;8.900;2024-03-29T13:37:07;2.47;;;1.30;;
19036;SDS011;9651;49.138;8.900;2024-03-29T13:41:12;3.90;;;2.58;;
19036;SDS011;9651;49.138;8.900;2024-03-29T13:45:18;1.50;;;0.85;;
19036;SDS011;9651;49.138;8.900;2024-03-29T13:49:20;2.05;;;1.42;;
19036;SDS011;9651;49.138;8.900;2024-03-29T13:53:22;2.95;;;1.75;;
19036;SDS011;9651;49.138;8.900;2024-03-29T13:57:24;2.88;;;1.00;;
19036;SDS011;9651;49.138;8.900;2024-03-29T14:01:28;2.13;;;1.50;;
19036;SDS011;9651;49.138;8.900;2024-03-29T14:05:29;6.07;;;4.10;;
19036;SDS011;9651;49.138;8.900;2024-03-29T14:09:32;3.15;;;1.70;;
19036;SDS011;9651;49.138;8.900;2024-03-29T14:13:35;3.63;;;1.98;;
19036;SDS011;9651;49.138;8.900;2024-03-29T14:17:38;2.80;;;1.25;;
19036;SDS011;9651;49.138;8.900;2024-03-29T14:21:40;1.17;;;1.08;;
19036;SDS011;9651;49.138;8.900;2024-03-29T14:25:42;2.45;;;1.20;;
19036;SDS011;9651;49.138;8.900;2024-03-29T14:29:44;1.83;;;1.17;;
19036;SDS011;9651;49.138;8.900;2024-03-29T14:33:48;7.40;;;4.15;;
19036;SDS011;9651;49.138;8.900;2024-03-29T14:37:50;5.25;;;3.92;;
19036;SDS011;9651;49.138;8.900;2024-03-29T14:41:52;2.72;;;2.05;;
19036;SDS011;9651;49.138;8.900;2024-03-29T14:45:54;2.92;;;2.00;;
19036;SDS011;9651;49.138;8.900;2024-03-29T14:49:57;2.97;;;1.70;;
19036;SDS011;9651;49.138;8.900;2024-03-29T14:53:59;1.85;;;1.33;;
19036;SDS011;9651;49.138;8.900;2024-03-29T14:58:03;2.25;;;1.35;;
19036;SDS011;9651;49.138;8.900;2024-03-29T15:02:05;3.55;;;1.88;;
19036;SDS011;9651;49.138;8.900;2024-03-29T15:06:08;3.17;;;2.00;;
19036;SDS011;9651;49.138;8.900;2024-03-29T15:10:10;4.70;;;1.60;;
19036;SDS011;9651;49.138;8.900;2024-03-29T15:14:12;3.97;;;1.83;;
19036;SDS011;9651;49.138;8.900;2024-03-29T15:18:14;3.63;;;2.28;;
19036;SDS011;9651;49.138;8.900;2024-03-29T15:22:17;3.60;;;1.80;;
19036;SDS011;9651;49.138;8.900;2024-03-29T15:26:19;2.72;;;1.58;;
19036;SDS011;9651;49.138;8.900;2024-03-29T15:30:22;3.45;;;1.60;;
19036;SDS011;9651;49.138;8.900;2024-03-29T15:34:23;2.63;;;1.48;;
19036;SDS011;9651;49.138;8.900;2024-03-29T15:38:26;2.22;;;1.52;;
19036;SDS011;9651;49.138;8.900;2024-03-29T15:42:30;2.78;;;1.33;;
19036;SDS011;9651;49.138;8.900;2024-03-29T15:46:35;7.50;;;3.78;;
19036;SDS011;9651;49.138;8.900;2024-03-29T15:50:37;1.83;;;1.63;;
19036;SDS011;9651;49.138;8.900;2024-03-29T15:54:40;6.30;;;3.35;;
19036;SDS011;9651;49.138;8.900;2024-03-29T15:58:42;2.63;;;1.83;;
19036;SDS011;9651;49.138;8.900;2024-03-29T16:02:45;3.42;;;2.20;;
19036;SDS011;9651;49.138;8.900;2024-03-29T16:06:48;4.28;;;2.28;;
19036;SDS011;9651;49.138;8.900;2024-03-29T16:10:52;2.53;;;1.90;;
19036;SDS011;9651;49.138;8.900;2024-03-29T16:14:55;3.53;;;2.67;;
19036;SDS011;9651;49.138;8.900;2024-03-29T16:18:57;3.15;;;2.50;;
19036;SDS011;9651;49.138;8.900;2024-03-29T16:22:59;3.65;;;2.80;;
19036;SDS011;9651;49.138;8.900;2024-03-29T16:27:03;4.90;;;2.63;;
19036;SDS011;9651;49.138;8.900;2024-03-29T16:31:05;4.25;;;2.50;;
19036;SDS011;9651;49.138;8.900;2024-03-29T16:35:06;2.45;;;2.10;;
19036;SDS011;9651;49.138;8.900;2024-03-29T16:39:08;4.47;;;3.40;;
19036;SDS011;9651;49.138;8.900;2024-03-29T16:43:12;5.60;;;4.03;;
19036;SDS011;9651;49.138;8.900;2024-03-29T16:47:14;7.18;;;4.43;;
19036;SDS011;9651;49.138;8.900;2024-03-29T16:51:15;5.07;;;3.83;;
19036;SDS011;9651;49.138;8.900;2024-03-29T16:55:17;4.43;;;3.58;;
19036;SDS011;9651;49.138;8.900;2024-03-29T16:59:21;3.85;;;2.20;;
19036;SDS011;9651;49.138;8.900;2024-03-29T17:03:22;4.45;;;2.70;;
19036;SDS011;9651;49.138;8.900;2024-03-29T17:07:24;3.50;;;3.20;;
19036;SDS011;9651;49.138;8.900;2024-03-29T17:11:26;4.38;;;3.03;;
19036;SDS011;9651;49.138;8.900;2024-03-29T17:15:29;9.77;;;5.70;;
19036;SDS011;9651;49.138;8.900;2024-03-29T17:19:31;14.65;;;7.32;;
19036;SDS011;9651;49.138;8.900;2024-03-29T17:23:34;12.95;;;7.10;;
19036;SDS011;9651;49.138;8.900;2024-03-29T17:27:36;6.25;;;3.97;;
19036;SDS011;9651;49.138;8.900;2024-03-29T17:31:41;5.75;;;4.10;;
19036;SDS011;9651;49.138;8.900;2024-03-29T17:35:43;5.82;;;3.80;;
19036;SDS011;9651;49.138;8.900;2024-03-29T17:39:45;9.32;;;4.75;;
19036;SDS011;9651;49.138;8.900;2024-03-29T17:43:47;6.47;;;4.35;;
19036;SDS011;9651;49.138;8.900;2024-03-29T17:47:50;5.53;;;3.50;;
19036;SDS011;9651;49.138;8.900;2024-03-29T17:51:52;10.02;;;4.22;;
19036;SDS011;9651;49.138;8.900;2024-03-29T17:55:53;6.20;;;3.42;;
19036;SDS011;9651;49.138;8.900;2024-03-29T17:59:55;7.68;;;4.70;;
19036;SDS011;9651;49.138;8.900;2024-03-29T18:04:00;6.50;;;4.60;;
19036;SDS011;9651;49.138;8.900;2024-03-29T18:08:03;9.85;;;5.97;;
19036;SDS011;9651;49.138;8.900;2024-03-29T18:12:04;9.07;;;8.05;;
19036;SDS011;9651;49.138;8.900;2024-03-29T18:16:06;6.13;;;5.00;;
19036;SDS011;9651;49.138;8.900;2024-03-29T18:20:10;4.60;;;3.97;;
19036;SDS011;9651;49.138;8.900;2024-03-29T18:24:12;6.47;;;5.28;;
19036;SDS011;9651;49.138;8.900;2024-03-29T18:28:14;5.72;;;3.70;;
19036;SDS011;9651;49.138;8.900;2024-03-29T18:32:16;9.00;;;5.57;;
19036;SDS011;9651;49.138;8.900;2024-03-29T18:36:19;9.50;;;5.70;;
19036;SDS011;9651;49.138;8.900;2024-03-29T18:40:21;5.68;;;4.75;;
19036;SDS011;9651;49.138;8.900;2024-03-29T18:44:23;7.45;;;3.97;;
19036;SDS011;9651;49.138;8.900;2024-03-29T18:48:25;5.25;;;3.20;;
19036;SDS011;9651;49.138;8.900;2024-03-29T18:52:28;8.35;;;5.25;;
19036;SDS011;9651;49.138;8.900;2024-03-29T18:56:29;5.35;;;4.30;;
19036;SDS011;9651;49.138;8.900;2024-03-29T19:00:31;7.88;;;4.00;;
19036;SDS011;9651;49.138;8.900;2024-03-29T19:04:33;6.30;;;4.15;;
19036;SDS011;9651;49.138;8.900;2024-03-29T19:08:38;8.63;;;6.70;;
19036;SDS011;9651;49.138;8.900;2024-03-29T19:12:40;5.13;;;3.78;;
19036;SDS011;9651;49.138;8.900;2024-03-29T19:16:41;4.18;;;3.15;;
19036;SDS011;9651;49.138;8.900;2024-03-29T19:20:43;5.50;;;4.10;;
19036;SDS011;9651;49.138;8.900;2024-03-29T19:24:46;4.47;;;3.97;;
19036;SDS011;9651;49.138;8.900;2024-03-29T19:28:52;4.80;;;4.13;;
19036;SDS011;9651;49.138;8.900;2024-03-29T19:32:54;3.93;;;3.30;;
19036;SDS011;9651;49.138;8.900;2024-03-29T19:36:57;7.10;;;4.32;;
19036;SDS011;9651;49.138;8.900;2024-03-29T19:41:01;5.43;;;3.13;;
19036;SDS011;9651;49.138;8.900;2024-03-29T19:45:03;4.25;;;3.45;;
19036;SDS011;9651;49.138;8.900;2024-03-29T19:49:06;6.57;;;5.27;;
19036;SDS011;9651;49.138;8.900;2024-03-29T19:53:07;6.13;;;3.60;;
19036;SDS011;9651;49.138;8.900;2024-03-29T19:57:13;4.27;;;3.87;;
19036;SDS011;9651;49.138;8.900;2024-03-29T20:01:15;5.40;;;4.20;;
19036;SDS011;9651;49.138;8.900;2024-03-29T20:05:17;5.57;;;2.87;;
19036;SDS011;9651;49.138;8.900;2024-03-29T20:09:19;5.77;;;4.13;;
19036;SDS011;9651;49.138;8.900;2024-03-29T20:13:22;4.13;;;2.33;;
19036;SDS011;9651;49.138;8.900;2024-03-29T20:17:24;3.43;;;2.40;;
19036;SDS011;9651;49.138;8.900;2024-03-29T20:21:26;6.13;;;2.07;;
19036;SDS011;9651;49.138;8.900;2024-03-29T20:25:29;2.87;;;2.20;;
19036;SDS011;9651;49.138;8.900;2024-03-29T20:29:33;4.13;;;2.70;;
19036;SDS011;9651;49.138;8.900;2024-03-29T20:33:35;3.53;;;2.53;;
19036;SDS011;9651;49.138;8.900;2024-03-29T20:37:37;6.80;;;3.10;;
19036;SDS011;9651;49.138;8.900;2024-03-29T20:41:38;4.00;;;3.10;;
19036;SDS011;9651;49.138;8.900;2024-03-29T20:45:42;8.13;;;2.97;;
19036;SDS011;9651;49.138;8.900;2024-03-29T20:49:44;3.60;;;3.20;;
19036;SDS011;9651;49.138;8.900;2024-03-29T20:53:49;6.60;;;3.53;;
19036;SDS011;9651;49.138;8.900;2024-03-29T20:57:51;4.73;;;2.87;;
19036;SDS011;9651;49.138;8.900;2024-03-29T21:01:54;4.40;;;3.20;;
19036;SDS011;9651;49.138;8.900;2024-03-29T21:06:25;4.20;;;3.00;;
19036;SDS011;9651;49.138;8.900;2024-03-29T21:10:27;5.60;;;3.50;;
19036;SDS011;9651;49.138;8.900;2024-03-29T21:14:30;4.80;;;3.37;;
19036;SDS011;9651;49.138;8.900;2024-03-29T21:18:33;5.83;;;3.20;;
19036;SDS011;9651;49.138;8.900;2024-03-29T21:22:35;4.23;;;2.83;;
19036;SDS011;9651;49.138;8.900;2024-03-29T21:26:37;6.17;;;3.33;;
19036;SDS011;9651;49.138;8.900;2024-03-29T21:30:38;3.73;;;2.60;;
19036;SDS011;9651;49.138;8.900;2024-03-29T21:34:42;5.23;;;2.57;;
19036;SDS011;9651;49.138;8.900;2024-03-29T21:38:43;5.53;;;3.80;;
19036;SDS011;9651;49.138;8.900;2024-03-29T21:42:45;5.00;;;3.30;;
19036;SDS011;9651;49.138;8.900;2024-03-29T21:46:48;3.60;;;2.93;;
19036;SDS011;9651;49.138;8.900;2024-03-29T21:50:51;4.73;;;3.67;;
19036;SDS011;9651;49.138;8.900;2024-03-29T21:54:53;7.37;;;4.50;;
19036;SDS011;9651;49.138;8.900;2024-03-29T21:58:55;7.50;;;3.83;;
19036;SDS011;9651;49.138;8.900;2024-03-29T22:02:57;4.83;;;3.87;;
19036;SDS011;9651;49.138;8.900;2024-03-29T22:07:01;4.03;;;3.63;;
19036;SDS011;9651;49.138;8.900;2024-03-29T22:11:03;3.80;;;3.00;;
19036;SDS011;9651;49.138;8.900;2024-03-29T22:15:05;4.57;;;3.50;;
19036;SDS011;9651;49.138;8.900;2024-03-29T22:19:07;4.10;;;3.30;;
19036;SDS011;9651;49.138;8.900;2024-03-29T22:23:11;7.33;;;4.30;;
19036;SDS011;9651;49.138;8.900;2024-03-29T22:27:12;3.77;;;3.10;;
19036;SDS011;9651;49.138;8.900;2024-03-29T22:31:14;4.77;;;3.47;;
19036;SDS011;9651;49.138;8.900;2024-03-29T22:35:16;6.00;;;3.57;;
19036;SDS011;9651;49.138;8.900;2024-03-29T22:39:19;4.40;;;3.93;;
19036;SDS011;9651;49.138;8.900;2024-03-29T22:43:21;6.37;;;3.63;;
19036;SDS011;9651;49.138;8.900;2024-03-29T22:47:23;5.20;;;3.90;;
19036;SDS011;9651;49.138;8.900;2024-03-29T22:51:25;5.67;;;3.77;;
19036;SDS011;9651;49.138;8.900;2024-03-29T22:55:29;5.27;;;4.20;;
19036;SDS011;9651;49.138;8.900;2024-03-29T22:59:31;5.30;;;4.23;;
19036;SDS011;9651;49.138;8.900;2024-03-29T23:03:33;6.53;;;3.30;;
19036;SDS011;9651;49.138;8.900;2024-03-29T23:07:35;5.30;;;3.33;;
19036;SDS011;9651;49.138;8.900;2024-03-29T23:11:39;3.90;;;3.27;;
19036;SDS011;9651;49.138;8.900;2024-03-29T23:15:41;4.87;;;3.17;;
19036;SDS011;9651;49.138;8.900;2024-03-29T23:19:44;4.47;;;2.87;;
19036;SDS011;9651;49.138;8.900;2024-03-29T23:23:46;4.30;;;3.17;;
19036;SDS011;9651;49.138;8.900;2024-03-29T23:27:49;4.17;;;2.97;;
19036;SDS011;9651;49.138;8.900;2024-03-29T23:31:51;4.10;;;3.07;;
19036;SDS011;9651;49.138;8.900;2024-03-29T23:35:53;4.00;;;2.90;;
19036;SDS011;9651;49.138;8.900;2024-03-29T23:39:55;3.80;;;3.30;;
19036;SDS011;9651;49.138;8.900;2024-03-29T23:43:58;5.97;;;3.70;;
19036;SDS011;9651;49.138;8.900;2024-03-29T23:48:00;4.90;;;3.50;;
19036;SDS011;9651;49.138;8.900;2024-03-29T23:52:03;5.17;;;3.67;;
19036;SDS011;9651;49.138;8.900;2024-03-29T23:56:04;7.63;;;3.93;;
